KMTN/MTN METAR and TAF weather

Enter ICAO airport designator
Station Type Date Time Source
KMTN METAR 2021/01/16 01:54 UTC NOAA

KMTN 160154Z 00000KT 5SM -RA BKN040 BKN045 06/06 A2974


Station Type Date Time Source
KMTN Decoded METAR 2021/01/16 01:54 UTC NOAA

Baltimore / Martin, MD, United States (KMTN) 39-20N 076-25W
Jan 15, 2021 - 08:54 PM EST / 2021.01.16 0154 UTC
Wind: Calm:0
Visibility: 5 mile(s):0
Sky conditions: mostly cloudy
Weather: light rain
Temperature: 42 F (6 C)
Dew Point: 42 F (6 C)
Relative Humidity: 100%
Pressure (altimeter): 29.74 in. Hg (1007 hPa)
ob: KMTN 160154Z 00000KT 5SM -RA BKN040 BKN045 06/06 A2974
cycle: 2

Station Type Date Time Source
KMTN TAF 2021/01/15 18:48 UTC NOAA

TAF KMTN 151747Z 1518/1618 07007KT P6SM SCT010 BKN120 OVC250
FM151900 10007KT P6SM SCT030 OVC120
FM160000 12007KT 6SM -SHRA OVC035
FM160200 14007KT 4SM -SHRA BR OVC025
FM160400 13005KT 2SM SHRA BR OVC008
FM160800 VRB03KT 3SM BR BKN005
FM161200 28006KT P6SM SCT010 BKN050 BKN150

Example: see airport list